createdAt,value
2023-01-17T00:01:44.375Z,96903.00
2023-01-17T00:04:30.669Z,96914.00
2023-01-17T00:07:16.024Z,96895.00
2023-01-17T00:09:52.705Z,96893.00
2023-01-17T00:12:20.392Z,96901.00
2023-01-17T00:14:47.869Z,96899.00
2023-01-17T00:17:15.219Z,96905.00
2023-01-17T00:20:00.565Z,96914.00
2023-01-17T00:22:48.276Z,96908.00
2023-01-17T00:25:36.320Z,96904.00
2023-01-17T00:28:03.667Z,96901.00
2023-01-17T00:30:30.699Z,96904.00
2023-01-17T00:32:57.558Z,96908.00
2023-01-17T00:35:26.677Z,96902.00
2023-01-17T00:38:01.765Z,96907.00
2023-01-17T00:40:29.537Z,96898.00
2023-01-17T00:43:14.980Z,96908.00
2023-01-17T00:46:02.449Z,96900.00
2023-01-17T00:48:48.479Z,96908.00
2023-01-17T00:51:34.714Z,96899.00
2023-01-17T00:54:20.287Z,96916.00
2023-01-17T00:57:06.187Z,96920.00
2023-01-17T00:59:52.088Z,96912.00
2023-01-17T01:02:37.957Z,96926.00
2023-01-17T01:05:23.848Z,96924.00
2023-01-17T01:08:09.472Z,96911.00
2023-01-17T01:10:55.194Z,96911.00
2023-01-17T01:13:42.743Z,96920.00
2023-01-17T01:16:28.431Z,96915.00
2023-01-17T01:19:14.200Z,96922.00
2023-01-17T01:21:59.981Z,96918.00
2023-01-17T01:24:45.717Z,96925.00
2023-01-17T01:27:31.992Z,96925.00
2023-01-17T01:30:17.748Z,96927.00
2023-01-17T01:33:02.975Z,96923.00
2023-01-17T01:35:30.232Z,96929.00
2023-01-17T01:37:57.500Z,96922.00
2023-01-17T01:40:24.809Z,96917.00
2023-01-17T01:42:53.679Z,96933.00
2023-01-17T01:45:24.099Z,96926.00
2023-01-17T01:47:54.664Z,96928.00
2023-01-17T01:50:22.597Z,96919.00
2023-01-17T01:52:55.325Z,96926.00
2023-01-17T01:55:26.777Z,96928.00
2023-01-17T01:57:58.572Z,96928.00
2023-01-17T02:00:29.784Z,96924.00
2023-01-17T02:03:00.923Z,96927.00
2023-01-17T02:05:28.855Z,96926.00
2023-01-17T02:08:01.729Z,96926.00
2023-01-17T02:10:31.528Z,96915.00
2023-01-17T02:12:59.724Z,96927.00
2023-01-17T02:15:32.476Z,96918.00
2023-01-17T02:18:10.831Z,96920.00
2023-01-17T02:21:09.081Z,96917.00
2023-01-17T02:24:00.524Z,96922.00
2023-01-17T02:27:10.593Z,96927.00
2023-01-17T02:30:13.839Z,96922.00
2023-01-17T02:32:52.958Z,96918.00
2023-01-17T02:35:28.413Z,96934.00
2023-01-17T02:38:03.258Z,96935.00
2023-01-17T02:40:35.589Z,96935.00
2023-01-17T02:43:07.081Z,96932.00
2023-01-17T02:45:34.371Z,96938.00
2023-01-17T02:48:02.327Z,96929.00
2023-01-17T02:50:39.414Z,96936.00
2023-01-17T02:53:20.169Z,96949.00
2023-01-17T02:55:54.744Z,96960.00
2023-01-17T02:58:41.780Z,96955.00
2023-01-17T03:01:20.490Z,96962.00
2023-01-17T03:03:55.135Z,96961.00
2023-01-17T03:06:27.080Z,96975.00
2023-01-17T03:08:55.021Z,96967.00
2023-01-17T03:11:22.615Z,96967.00
2023-01-17T03:13:55.895Z,96977.00
2023-01-17T03:16:25.759Z,96971.00
2023-01-17T03:18:53.845Z,96982.00
2023-01-17T03:21:21.380Z,96979.00
2023-01-17T03:23:48.629Z,96981.00
2023-01-17T03:26:16.431Z,96986.00
2023-01-17T03:28:43.746Z,96983.00
2023-01-17T03:31:14.635Z,96990.00
2023-01-17T03:33:41.899Z,96993.00
2023-01-17T03:36:11.228Z,96989.00
2023-01-17T03:38:38.620Z,96993.00
2023-01-17T03:41:06.891Z,97005.00
2023-01-17T03:43:34.304Z,97011.00
2023-01-17T03:46:06.170Z,97010.00
2023-01-17T03:48:33.810Z,97005.00
2023-01-17T03:51:01.057Z,97013.00
2023-01-17T03:53:28.982Z,97006.00
2023-01-17T03:55:56.217Z,97008.00
2023-01-17T03:58:23.396Z,97017.00
2023-01-17T04:00:50.691Z,97018.00
2023-01-17T04:03:18.034Z,97024.00
2023-01-17T04:05:45.508Z,97025.00
2023-01-17T04:08:12.751Z,97033.00
2023-01-17T04:10:40.782Z,97036.00
2023-01-17T04:13:07.994Z,97034.00
2023-01-17T04:15:35.314Z,97042.00
2023-01-17T04:18:04.286Z,97043.00
2023-01-17T04:20:34.308Z,97053.00
2023-01-17T04:23:01.556Z,97045.00
2023-01-17T04:25:30.048Z,97050.00
2023-01-17T04:27:58.593Z,97056.00
2023-01-17T04:30:26.618Z,97054.00
2023-01-17T04:32:54.151Z,97060.00
2023-01-17T04:35:21.650Z,97065.00
2023-01-17T04:37:48.922Z,97079.00
2023-01-17T04:40:16.532Z,97072.00
2023-01-17T04:42:45.294Z,97080.00
2023-01-17T04:45:13.763Z,97085.00
2023-01-17T04:47:41.149Z,97093.00
2023-01-17T04:50:10.082Z,97105.00
2023-01-17T04:52:37.320Z,97106.00
2023-01-17T04:55:05.667Z,97105.00
2023-01-17T04:57:32.916Z,97114.00
2023-01-17T05:00:00.201Z,97127.00
2023-01-17T05:02:28.232Z,97103.00
2023-01-17T05:04:55.489Z,97123.00
2023-01-17T05:07:23.244Z,97124.00
2023-01-17T05:09:50.474Z,97131.00
2023-01-17T05:12:17.751Z,97131.00
2023-01-17T05:14:44.927Z,97130.00
2023-01-17T05:17:12.193Z,97142.00
2023-01-17T05:19:40.069Z,97133.00
2023-01-17T05:22:14.328Z,97151.00
2023-01-17T05:24:42.240Z,97159.00
2023-01-17T05:27:10.387Z,97147.00
2023-01-17T05:29:37.829Z,97149.00
2023-01-17T05:32:05.788Z,97158.00
2023-01-17T05:34:33.555Z,97155.00
2023-01-17T05:37:01.537Z,97151.00
2023-01-17T05:39:30.158Z,97160.00
2023-01-17T05:41:57.599Z,97168.00
2023-01-17T05:44:26.838Z,97159.00
2023-01-17T05:46:54.398Z,97170.00
2023-01-17T05:49:21.647Z,97168.00
2023-01-17T05:51:48.919Z,97167.00
2023-01-17T05:54:17.089Z,97179.00
2023-01-17T05:56:44.399Z,97182.00
2023-01-17T05:59:14.128Z,97185.00
2023-01-17T06:01:41.519Z,97192.00
2023-01-17T06:04:08.744Z,97188.00
2023-01-17T06:06:35.993Z,97182.00
2023-01-17T06:09:03.378Z,97195.00
2023-01-17T06:11:31.263Z,97207.00
2023-01-17T06:13:58.498Z,97208.00
2023-01-17T06:16:25.856Z,97215.00
2023-01-17T06:18:53.114Z,97222.00
2023-01-17T06:21:20.382Z,97209.00
2023-01-17T06:23:47.697Z,97201.00
2023-01-17T06:26:14.990Z,97203.00
2023-01-17T06:28:42.966Z,97213.00
2023-01-17T06:31:10.335Z,97225.00
2023-01-17T06:33:37.654Z,97214.00
2023-01-17T06:36:05.597Z,97216.00
2023-01-17T06:38:32.957Z,97214.00
2023-01-17T06:41:03.215Z,97208.00
2023-01-17T06:43:32.949Z,97211.00
2023-01-17T06:46:01.024Z,97211.00
2023-01-17T06:48:28.598Z,97214.00
2023-01-17T06:50:57.796Z,97218.00
2023-01-17T06:53:25.069Z,97210.00
2023-01-17T06:55:54.973Z,97217.00
2023-01-17T06:58:22.371Z,97225.00
2023-01-17T07:00:49.701Z,97221.00
2023-01-17T07:03:21.168Z,97226.00
2023-01-17T07:05:48.954Z,97228.00
2023-01-17T07:08:16.737Z,97229.00
2023-01-17T07:10:44.241Z,97239.00
2023-01-17T07:13:11.699Z,97241.00
2023-01-17T07:15:39.534Z,97255.00
2023-01-17T07:18:07.574Z,97247.00
2023-01-17T07:20:35.513Z,97262.00
2023-01-17T07:23:02.791Z,97264.00
2023-01-17T07:25:30.045Z,97261.00
2023-01-17T07:27:57.293Z,97273.00
2023-01-17T07:30:24.688Z,97258.00
2023-01-17T07:32:52.891Z,97268.00
2023-01-17T07:35:20.746Z,97266.00
2023-01-17T07:37:49.011Z,97273.00
2023-01-17T07:40:17.118Z,97273.00
2023-01-17T07:42:44.630Z,97274.00
2023-01-17T07:45:13.936Z,97278.00
2023-01-17T07:47:41.165Z,97281.00
2023-01-17T07:50:09.807Z,97284.00
2023-01-17T07:52:37.080Z,97283.00
2023-01-17T07:55:06.108Z,97291.00
2023-01-17T07:57:33.342Z,97292.00
2023-01-17T08:00:00.578Z,97285.00
2023-01-17T08:02:27.855Z,97293.00
2023-01-17T08:04:55.162Z,97300.00
2023-01-17T08:07:22.381Z,97297.00
2023-01-17T08:09:49.903Z,97290.00
2023-01-17T08:12:17.940Z,97296.00
2023-01-17T08:14:45.260Z,97295.00
2023-01-17T08:17:17.329Z,97295.00
2023-01-17T08:19:44.919Z,97299.00
2023-01-17T08:22:12.282Z,97312.00
2023-01-17T08:24:39.565Z,97307.00
2023-01-17T08:27:08.323Z,97311.00
2023-01-17T08:29:36.379Z,97301.00
2023-01-17T08:32:03.715Z,97322.00
2023-01-17T08:34:33.440Z,97316.00
2023-01-17T08:37:00.681Z,97325.00
2023-01-17T08:39:28.046Z,97337.00
2023-01-17T08:41:56.782Z,97331.00
2023-01-17T08:44:24.104Z,97342.00
2023-01-17T08:46:52.010Z,97346.00
2023-01-17T08:49:19.298Z,97353.00
2023-01-17T08:51:46.568Z,97353.00
2023-01-17T08:54:14.706Z,97364.00
2023-01-17T08:56:42.483Z,97371.00
2023-01-17T08:59:11.425Z,97370.00
2023-01-17T09:01:41.130Z,97373.00
2023-01-17T09:04:09.452Z,97374.00
2023-01-17T09:06:37.845Z,97381.00
2023-01-17T09:09:05.403Z,97387.00
2023-01-17T09:11:33.105Z,97392.00
2023-01-17T09:14:01.192Z,97399.00
2023-01-17T09:16:29.143Z,97400.00
2023-01-17T09:18:57.412Z,97415.00
2023-01-17T09:21:25.986Z,97415.00
2023-01-17T09:23:54.265Z,97420.00
2023-01-17T09:26:24.028Z,97425.00
2023-01-17T09:28:51.920Z,97419.00
2023-01-17T09:31:20.735Z,97419.00
2023-01-17T09:33:47.944Z,97431.00
2023-01-17T09:36:15.501Z,97424.00
2023-01-17T09:38:43.991Z,97418.00
2023-01-17T09:41:26.759Z,97417.00
2023-01-17T09:43:59.710Z,97429.00
2023-01-17T09:46:31.830Z,97420.00
2023-01-17T09:49:06.568Z,97429.00
2023-01-17T09:51:34.231Z,97435.00
2023-01-17T09:54:02.145Z,97433.00
2023-01-17T09:56:34.623Z,97427.00
2023-01-17T09:59:19.004Z,97435.00
2023-01-17T10:01:54.294Z,97430.00
2023-01-17T10:04:36.486Z,97440.00
2023-01-17T10:07:14.192Z,97434.00
2023-01-17T10:10:04.169Z,97435.00
2023-01-17T10:12:39.297Z,97438.00
2023-01-17T10:15:48.341Z,97430.00
2023-01-17T10:18:30.706Z,97440.00
2023-01-17T10:21:04.689Z,97418.00
2023-01-17T10:23:59.822Z,97425.00
2023-01-17T10:26:28.405Z,97422.00
2023-01-17T10:29:02.140Z,97423.00
2023-01-17T10:31:35.234Z,97437.00
2023-01-17T10:34:11.595Z,97437.00
2023-01-17T10:36:44.345Z,97442.00
2023-01-17T10:39:18.934Z,97438.00
2023-01-17T10:41:54.417Z,97439.00
2023-01-17T10:44:27.506Z,97440.00
2023-01-17T10:47:00.908Z,97446.00
2023-01-17T10:49:28.953Z,97454.00
2023-01-17T10:52:12.098Z,97455.00
2023-01-17T10:55:05.467Z,97458.00
2023-01-17T10:57:40.387Z,97449.00
2023-01-17T11:00:39.311Z,97453.00
2023-01-17T11:03:09.498Z,97463.00
2023-01-17T11:05:36.842Z,97457.00
2023-01-17T11:08:06.367Z,97455.00
2023-01-17T11:10:39.008Z,97456.00
2023-01-17T11:13:23.830Z,97461.00
2023-01-17T11:15:56.956Z,97461.00
2023-01-17T11:18:27.488Z,97460.00
2023-01-17T11:21:08.818Z,97457.00
2023-01-17T11:23:36.506Z,97457.00
2023-01-17T11:26:08.065Z,97469.00
2023-01-17T11:28:37.337Z,97470.00
2023-01-17T11:31:07.111Z,97468.00
2023-01-17T11:33:44.433Z,97479.00
2023-01-17T11:36:20.182Z,97467.00
2023-01-17T11:38:58.575Z,97473.00
2023-01-17T11:41:27.400Z,97462.00
2023-01-17T11:43:56.774Z,97472.00
2023-01-17T11:46:24.708Z,97461.00
2023-01-17T11:48:55.865Z,97467.00
2023-01-17T11:51:27.124Z,97457.00
2023-01-17T11:54:08.150Z,97457.00
2023-01-17T11:56:36.781Z,97449.00
2023-01-17T11:59:27.931Z,97459.00
2023-01-17T12:02:19.441Z,97450.00
2023-01-17T12:04:50.977Z,97465.00
2023-01-17T12:07:26.901Z,97461.00
2023-01-17T12:10:04.851Z,97458.00
2023-01-17T12:13:03.622Z,97450.00
2023-01-17T12:15:46.509Z,97464.00
2023-01-17T12:18:35.803Z,97465.00
2023-01-17T12:21:16.975Z,97470.00
2023-01-17T12:24:00.072Z,97459.00
2023-01-17T12:26:37.568Z,97475.00
2023-01-17T12:29:29.340Z,97478.00
2023-01-17T12:32:14.125Z,97475.00
2023-01-17T12:34:50.055Z,97479.00
2023-01-17T12:37:22.124Z,97490.00
2023-01-17T12:39:56.511Z,97483.00
2023-01-17T12:42:27.943Z,97494.00
2023-01-17T12:45:02.135Z,97494.00
2023-01-17T12:47:32.024Z,97487.00
2023-01-17T12:50:06.454Z,97494.00
2023-01-17T12:52:46.494Z,97493.00
2023-01-17T12:55:20.042Z,97493.00
2023-01-17T12:57:56.005Z,97499.00
2023-01-17T13:00:26.157Z,97500.00
2023-01-17T13:03:01.567Z,97502.00
2023-01-17T13:05:35.362Z,97502.00
2023-01-17T13:08:15.970Z,97518.00
2023-01-17T13:10:47.887Z,97522.00
2023-01-17T13:13:21.454Z,97517.00
2023-01-17T13:15:52.016Z,97518.00
2023-01-17T13:18:25.083Z,97533.00
2023-01-17T13:21:22.016Z,97521.00
2023-01-17T13:24:06.338Z,97521.00
2023-01-17T13:26:48.961Z,97517.00
2023-01-17T13:29:29.686Z,97532.00
2023-01-17T13:32:06.028Z,97527.00
2023-01-17T13:34:55.905Z,97520.00
2023-01-17T13:37:56.714Z,97529.00
2023-01-17T13:40:36.864Z,97536.00
2023-01-17T13:43:05.649Z,97527.00
2023-01-17T13:45:34.603Z,97545.00
2023-01-17T13:48:29.616Z,97542.00
2023-01-17T13:50:59.296Z,97537.00
2023-01-17T13:53:57.578Z,97545.00
2023-01-17T13:56:28.312Z,97545.00
2023-01-17T13:59:12.029Z,97545.00
2023-01-17T14:01:55.278Z,97555.00
2023-01-17T14:04:24.102Z,97558.00
2023-01-17T14:06:55.919Z,97551.00
2023-01-17T14:09:27.482Z,97553.00
2023-01-17T14:12:00.602Z,97556.00
2023-01-17T14:14:47.477Z,97552.00
2023-01-17T14:17:56.510Z,97550.00
2023-01-17T14:21:02.324Z,97553.00
2023-01-17T14:24:03.220Z,97566.00
2023-01-17T14:26:45.530Z,97566.00
2023-01-17T14:29:53.808Z,97560.00
2023-01-17T14:32:23.382Z,97562.00
2023-01-17T14:34:52.000Z,97560.00
2023-01-17T14:37:44.735Z,97557.00
2023-01-17T14:40:18.437Z,97550.00
2023-01-17T14:42:47.064Z,97557.00
2023-01-17T14:45:19.718Z,97545.00
2023-01-17T14:47:47.184Z,97550.00
2023-01-17T14:50:23.962Z,97542.00
2023-01-17T14:53:13.443Z,97537.00
2023-01-17T14:55:55.760Z,97551.00
2023-01-17T14:58:25.031Z,97553.00
2023-01-17T15:00:55.186Z,97567.00
2023-01-17T15:03:22.554Z,97563.00
2023-01-17T15:05:53.735Z,97560.00
2023-01-17T15:08:24.630Z,97574.00
2023-01-17T15:10:58.318Z,97555.00
2023-01-17T15:13:43.780Z,97557.00
2023-01-17T15:16:20.373Z,97561.00
2023-01-17T15:18:47.984Z,97578.00
2023-01-17T15:21:18.636Z,97573.00
2023-01-17T15:23:48.677Z,97580.00
2023-01-17T15:26:19.369Z,97578.00
2023-01-17T15:28:47.104Z,97569.00
2023-01-17T15:31:17.182Z,97565.00
2023-01-17T15:33:46.502Z,97563.00
2023-01-17T15:36:25.840Z,97560.00
2023-01-17T15:38:58.874Z,97564.00
2023-01-17T15:41:30.175Z,97566.00
2023-01-17T15:43:58.066Z,97569.00
2023-01-17T15:46:30.681Z,97574.00
2023-01-17T15:49:14.005Z,97579.00
2023-01-17T15:51:48.692Z,97580.00
2023-01-17T15:54:40.541Z,97575.00
2023-01-17T15:57:18.788Z,97582.00
2023-01-17T15:59:47.894Z,97578.00
2023-01-17T16:02:42.574Z,97581.00
2023-01-17T16:05:32.183Z,97573.00
2023-01-17T16:08:38.476Z,97578.00
2023-01-17T16:11:07.503Z,97580.00
2023-01-17T16:13:37.856Z,97576.00
2023-01-17T16:16:22.504Z,97570.00
2023-01-17T16:18:55.518Z,97568.00
2023-01-17T16:21:27.768Z,97570.00
2023-01-17T16:23:55.670Z,97577.00
2023-01-17T16:26:23.609Z,97574.00
2023-01-17T16:28:51.724Z,97583.00
2023-01-17T16:31:19.141Z,97579.00
2023-01-17T16:33:49.858Z,97585.00
2023-01-17T16:36:17.407Z,97568.00
2023-01-17T16:38:45.399Z,97571.00
2023-01-17T16:41:12.697Z,97572.00
2023-01-17T16:43:40.112Z,97562.00
2023-01-17T16:46:10.479Z,97565.00
2023-01-17T16:48:38.018Z,97565.00
2023-01-17T16:51:06.589Z,97564.00
2023-01-17T16:53:35.040Z,97566.00
2023-01-17T16:56:08.801Z,97558.00
2023-01-17T16:58:36.059Z,97556.00
2023-01-17T17:01:07.594Z,97572.00
2023-01-17T17:03:34.905Z,97557.00
2023-01-17T17:06:02.309Z,97558.00
2023-01-17T17:08:32.713Z,97549.00
2023-01-17T17:11:08.498Z,97548.00
2023-01-17T17:13:36.057Z,97557.00
2023-01-17T17:16:09.116Z,97560.00
2023-01-17T17:18:36.415Z,97556.00
2023-01-17T17:21:03.872Z,97555.00
2023-01-17T17:23:31.128Z,97555.00
2023-01-17T17:25:58.428Z,97555.00
2023-01-17T17:28:25.710Z,97556.00
2023-01-17T17:31:02.564Z,97550.00
2023-01-17T17:33:30.599Z,97561.00
2023-01-17T17:36:02.771Z,97560.00
2023-01-17T17:38:30.078Z,97571.00
2023-01-17T17:41:05.150Z,97574.00
2023-01-17T17:43:36.384Z,97577.00
2023-01-17T17:46:03.666Z,97576.00
2023-01-17T17:48:31.628Z,97577.00
2023-01-17T17:50:59.796Z,97582.00
2023-01-17T17:53:27.452Z,97580.00
2023-01-17T17:55:55.368Z,97583.00
2023-01-17T17:58:22.930Z,97579.00
2023-01-17T18:00:50.645Z,97568.00
2023-01-17T18:03:18.162Z,97571.00
2023-01-17T18:05:46.470Z,97575.00
2023-01-17T18:08:13.725Z,97567.00
2023-01-17T18:10:41.860Z,97574.00
2023-01-17T18:13:09.122Z,97574.00
2023-01-17T18:15:36.616Z,97572.00
2023-01-17T18:18:04.017Z,97570.00
2023-01-17T18:20:31.385Z,97562.00
2023-01-17T18:22:59.316Z,97563.00
2023-01-17T18:25:26.540Z,97564.00
2023-01-17T18:27:54.030Z,97565.00
2023-01-17T18:30:21.579Z,97567.00
2023-01-17T18:32:50.486Z,97577.00
2023-01-17T18:35:17.841Z,97571.00
2023-01-17T18:37:45.189Z,97571.00
2023-01-17T18:40:13.563Z,97575.00
2023-01-17T18:42:40.857Z,97573.00
2023-01-17T18:45:08.965Z,97573.00
2023-01-17T18:47:38.664Z,97567.00
2023-01-17T18:50:06.531Z,97580.00
2023-01-17T18:52:34.701Z,97578.00
2023-01-17T18:55:01.967Z,97585.00
2023-01-17T18:57:29.912Z,97586.00
2023-01-17T18:59:57.154Z,97587.00
2023-01-17T19:02:24.396Z,97589.00
2023-01-17T19:04:51.858Z,97580.00
2023-01-17T19:07:20.572Z,97581.00
2023-01-17T19:09:47.847Z,97583.00
2023-01-17T19:12:15.141Z,97591.00
2023-01-17T19:14:43.135Z,97594.00
2023-01-17T19:17:10.410Z,97584.00
2023-01-17T19:19:37.815Z,97591.00
2023-01-17T19:22:05.039Z,97590.00
2023-01-17T19:24:34.963Z,97601.00
2023-01-17T19:27:02.317Z,97594.00
2023-01-17T19:29:29.576Z,97600.00
2023-01-17T19:31:58.153Z,97597.00
2023-01-17T19:34:25.684Z,97601.00
2023-01-17T19:36:54.805Z,97607.00
2023-01-17T19:39:24.659Z,97614.00
2023-01-17T19:41:51.908Z,97609.00
2023-01-17T19:44:19.154Z,97614.00
2023-01-17T19:46:47.560Z,97616.00
2023-01-17T19:49:19.919Z,97622.00
2023-01-17T19:51:48.756Z,97615.00
2023-01-17T19:54:16.034Z,97617.00
2023-01-17T19:56:43.330Z,97613.00
2023-01-17T19:59:13.027Z,97614.00
2023-01-17T20:01:40.466Z,97618.00
2023-01-17T20:04:07.963Z,97618.00
2023-01-17T20:06:36.438Z,97617.00
2023-01-17T20:09:05.150Z,97625.00
2023-01-17T20:11:32.600Z,97625.00
2023-01-17T20:14:00.180Z,97629.00
2023-01-17T20:16:29.241Z,97633.00
2023-01-17T20:18:57.945Z,97632.00
2023-01-17T20:21:27.417Z,97631.00
2023-01-17T20:23:56.151Z,97637.00
2023-01-17T20:26:28.894Z,97633.00
2023-01-17T20:28:56.161Z,97641.00
2023-01-17T20:31:25.980Z,97651.00
2023-01-17T20:33:55.241Z,97656.00
2023-01-17T20:36:25.582Z,97651.00
2023-01-17T20:38:53.741Z,97661.00
2023-01-17T20:41:22.859Z,97662.00
2023-01-17T20:43:52.039Z,97666.00
2023-01-17T20:46:20.740Z,97668.00
2023-01-17T20:48:49.667Z,97670.00
2023-01-17T20:51:17.597Z,97672.00
2023-01-17T20:53:46.564Z,97680.00
2023-01-17T20:56:15.051Z,97676.00
2023-01-17T20:58:43.360Z,97670.00
2023-01-17T21:01:11.972Z,97680.00
2023-01-17T21:03:39.865Z,97680.00
2023-01-17T21:06:09.792Z,97667.00
2023-01-17T21:08:38.651Z,97677.00
2023-01-17T21:11:07.710Z,97686.00
2023-01-17T21:13:35.059Z,97695.00
2023-01-17T21:16:03.261Z,97684.00
2023-01-17T21:18:31.290Z,97682.00
2023-01-17T21:21:04.386Z,97677.00
2023-01-17T21:23:31.614Z,97676.00
2023-01-17T21:25:58.909Z,97677.00
2023-01-17T21:28:28.354Z,97679.00
2023-01-17T21:30:56.029Z,97673.00
2023-01-17T21:33:25.930Z,97664.00
2023-01-17T21:35:53.426Z,97672.00
2023-01-17T21:38:20.955Z,97665.00
2023-01-17T21:40:48.194Z,97669.00
2023-01-17T21:43:15.825Z,97662.00
2023-01-17T21:45:43.268Z,97659.00
2023-01-17T21:48:11.903Z,97660.00
2023-01-17T21:50:39.941Z,97671.00
2023-01-17T21:53:09.230Z,97660.00
2023-01-17T21:55:54.677Z,97661.00
2023-01-17T21:58:40.409Z,97660.00
2023-01-17T22:01:15.065Z,97655.00
2023-01-17T22:03:42.800Z,97660.00
2023-01-17T22:06:11.914Z,97655.00
2023-01-17T22:08:39.412Z,97650.00
2023-01-17T22:11:07.948Z,97645.00
2023-01-17T22:13:36.601Z,97650.00
2023-01-17T22:16:06.080Z,97636.00
2023-01-17T22:18:36.371Z,97634.00
2023-01-17T22:21:08.449Z,97639.00
2023-01-17T22:23:36.492Z,97623.00
2023-01-17T22:26:04.879Z,97625.00
2023-01-17T22:28:32.611Z,97617.00
2023-01-17T22:31:05.218Z,97615.00
2023-01-17T22:33:32.629Z,97605.00
2023-01-17T22:35:59.860Z,97608.00
2023-01-17T22:38:27.143Z,97604.00
2023-01-17T22:41:00.749Z,97604.00
2023-01-17T22:43:28.124Z,97601.00
2023-01-17T22:45:59.337Z,97599.00
2023-01-17T22:48:26.604Z,97597.00
2023-01-17T22:50:57.682Z,97597.00
2023-01-17T22:53:25.371Z,97590.00
2023-01-17T22:56:00.773Z,97592.00
2023-01-17T22:58:28.478Z,97602.00
2023-01-17T23:01:02.775Z,97589.00
2023-01-17T23:03:30.519Z,97591.00
2023-01-17T23:06:06.561Z,97593.00
2023-01-17T23:08:33.826Z,97586.00
2023-01-17T23:11:20.101Z,97580.00
2023-01-17T23:13:48.574Z,97580.00
2023-01-17T23:16:34.125Z,97583.00
2023-01-17T23:19:19.383Z,97579.00
2023-01-17T23:22:04.606Z,97584.00
2023-01-17T23:24:31.891Z,97584.00
2023-01-17T23:27:17.784Z,97574.00
2023-01-17T23:29:45.029Z,97559.00
2023-01-17T23:32:12.268Z,97563.00
2023-01-17T23:34:39.546Z,97555.00
2023-01-17T23:37:06.737Z,97555.00
2023-01-17T23:39:33.993Z,97540.00
2023-01-17T23:42:19.907Z,97544.00
2023-01-17T23:44:47.121Z,97539.00
2023-01-17T23:47:14.611Z,97530.00
2023-01-17T23:49:42.799Z,97534.00
2023-01-17T23:52:10.101Z,97533.00
2023-01-17T23:54:37.891Z,97542.00
2023-01-17T23:57:05.805Z,97559.00
2023-01-17T23:59:33.488Z,97575.00
